Time;durP1;ratioP1;P1;durP2;ratioP2;P2;SDS_P1;SDS_P2;PMS_P1;PMS_P2;Temp;Humidity;BMP_temperature;BMP_pressure;BME280_temperature;BME280_humidity;BME280_pressure;Samples;Min_cycle;Max_cycle;Signal;HPM_P1;HPM_P2
2022/01/04 00:05:14;;;;;;;1999.90;999.90;;;;;;;8.54;75.32;99847.41;15763595;28;20067;-64
2022/01/04 00:20:39;;;;;;;1999.90;999.90;;;;;;;8.54;75.21;99816.84;15748269;28;20044;-65
2022/01/04 00:28:12;;;;;;;1999.90;999.90;;;;;;;8.78;74.43;99820.88;15767720;28;20399;-65
2022/01/04 00:35:47;;;;;;;1999.90;999.90;;;;;;;8.74;74.93;99814.38;15745742;28;20040;-65
2022/01/04 00:43:19;;;;;;;1999.90;999.90;;;;;;;8.61;75.76;99782.94;15804995;28;20055;-65
2022/01/04 00:50:54;;;;;;;1999.90;999.90;;;;;;;8.70;75.57;99785.63;15760311;28;20493;-65
2022/01/04 00:58:26;;;;;;;1999.90;999.90;;;;;;;8.48;75.85;99773.72;15742973;28;20094;-65
2022/01/04 01:06:00;;;;;;;1999.90;999.90;;;;;;;8.68;75.00;99761.75;15768203;28;20512;-64
2022/01/04 01:13:33;;;;;;;1999.90;999.90;;;;;;;8.68;75.06;99736.72;15765905;28;20101;-64
2022/01/04 01:21:08;;;;;;;1999.90;999.90;;;;;;;8.69;75.30;99737.53;15743057;28;20037;-65
2022/01/04 01:28:40;;;;;;;1999.90;999.90;;;;;;;8.76;75.05;99729.44;15738180;28;20071;-66
2022/01/04 01:36:14;;;;;;;1999.90;999.90;;;;;;;8.79;75.55;99720.41;15755492;28;20476;-65
2022/01/04 01:43:47;;;;;;;1999.90;999.90;;;;;;;8.91;75.06;99700.94;15758546;28;20048;-66
2022/01/04 01:51:24;;;;;;;1999.90;999.90;;;;;;;8.99;75.11;99688.09;15752958;28;20064;-66
2022/01/04 01:58:57;;;;;;;1999.90;999.90;;;;;;;8.87;75.49;99690.88;15781070;28;20056;-65
2022/01/04 02:06:31;;;;;;;1999.90;999.90;;;;;;;8.87;75.59;99669.41;15772233;28;20095;-64
2022/01/04 02:14:04;;;;;;;1999.90;999.90;;;;;;;8.87;75.80;99655.50;15765310;28;20045;-64
2022/01/04 02:21:38;;;;;;;1999.90;999.90;;;;;;;8.96;75.73;99647.88;15792466;28;20044;-66
2022/01/04 02:29:10;;;;;;;1999.90;999.90;;;;;;;8.96;75.54;99642.31;15804227;28;20497;-65
2022/01/04 02:36:44;;;;;;;1999.90;999.90;;;;;;;8.97;75.72;99615.28;15737926;28;20055;-64
2022/01/04 02:44:17;;;;;;;1999.90;999.90;;;;;;;8.93;75.59;99603.22;15742687;28;20083;-64
2022/01/04 02:51:51;;;;;;;1999.90;999.90;;;;;;;8.88;76.04;99598.72;15789947;28;20550;-64
2022/01/04 02:59:24;;;;;;;1999.90;999.90;;;;;;;8.83;76.19;99593.38;15757836;28;20043;-64
2022/01/04 03:06:57;;;;;;;1999.90;999.90;;;;;;;8.96;76.11;99580.25;15753831;28;20052;-65
2022/01/04 03:14:30;;;;;;;1999.90;999.90;;;;;;;8.83;76.79;99575.88;15784133;28;20079;-64
2022/01/04 03:22:05;;;;;;;1999.90;999.90;;;;;;;9.01;76.21;99566.13;15771704;28;20052;-65
2022/01/04 03:29:38;;;;;;;1999.90;999.90;;;;;;;8.88;76.95;99556.97;15780224;28;20043;-65
2022/01/04 03:37:12;;;;;;;1999.90;999.90;;;;;;;8.97;76.64;99542.94;15767448;28;20090;-65
2022/01/04 03:44:45;;;;;;;1999.90;999.90;;;;;;;8.93;76.38;99530.88;15798967;28;20566;-65
2022/01/04 03:52:19;;;;;;;1999.90;999.90;;;;;;;9.00;76.04;99517.19;15765471;28;20049;-65
2022/01/04 03:59:52;;;;;;;1999.90;999.90;;;;;;;8.80;77.04;99510.63;15763294;28;20049;-66
2022/01/04 04:07:25;;;;;;;1999.90;999.90;;;;;;;8.75;77.42;99502.50;15780474;28;20041;-66
2022/01/04 04:15:03;;;;;;;1999.90;999.90;;;;;;;8.64;77.62;99477.16;15739714;28;20085;-66
2022/01/04 04:22:37;;;;;;;1999.90;999.90;;;;;;;8.72;77.71;99478.19;15779106;28;20123;-66
2022/01/04 04:30:11;;;;;;;1999.90;999.90;;;;;;;8.70;77.41;99474.97;15771682;28;20592;-66
2022/01/04 04:37:45;;;;;;;1999.90;999.90;;;;;;;8.71;77.30;99457.09;15748588;28;20537;-64
2022/01/04 04:45:18;;;;;;;1999.90;999.90;;;;;;;8.59;78.00;99451.56;15758643;28;20402;-65
2022/01/04 04:52:52;;;;;;;1999.90;999.90;;;;;;;8.71;77.58;99442.41;15755359;28;20071;-64
2022/01/04 05:00:25;;;;;;;1999.90;999.90;;;;;;;8.62;78.25;99423.88;15756099;28;20400;-64
2022/01/04 05:07:58;;;;;;;1999.90;999.90;;;;;;;8.66;77.98;99421.22;15800766;28;20117;-64
2022/01/04 05:15:31;;;;;;;1999.90;999.90;;;;;;;8.67;78.06;99412.50;15759198;28;20033;-64
2022/01/04 05:23:05;;;;;;;1999.90;999.90;;;;;;;8.67;78.79;99390.28;15782968;28;20534;-65
2022/01/04 05:30:37;;;;;;;1999.90;999.90;;;;;;;8.76;78.05;99387.34;15745204;28;20048;-64
2022/01/04 05:38:11;;;;;;;1999.90;999.90;;;;;;;8.66;77.26;99385.06;15784305;28;20036;-65
2022/01/04 05:45:44;;;;;;;1999.90;999.90;;;;;;;8.65;77.34;99377.88;15772582;28;20046;-66
2022/01/04 05:53:19;;;;;;;1999.90;999.90;;;;;;;8.73;76.99;99360.22;15772707;28;20053;-66
2022/01/04 06:00:51;;;;;;;1999.90;999.90;;;;;;;8.60;76.87;99339.19;15722983;28;20049;-66
2022/01/04 06:08:30;;;;;;;1999.90;999.90;;;;;;;8.56;76.61;99318.84;15766175;28;20040;-65
2022/01/04 06:16:03;;;;;;;1999.90;999.90;;;;;;;8.54;76.87;99304.44;15734410;28;20483;-65
2022/01/04 06:23:38;;;;;;;1999.90;999.90;;;;;;;8.88;77.61;99305.81;15758457;28;20036;-65
2022/01/04 06:31:11;;;;;;;1999.90;999.90;;;;;;;8.90;78.02;99287.59;15745395;28;20098;-65
2022/01/04 06:38:45;;;;;;;1999.90;999.90;;;;;;;8.94;78.29;99290.47;15773889;28;20064;-65
2022/01/04 06:46:17;;;;;;;1999.90;999.90;;;;;;;9.14;77.71;99277.50;15735967;28;20120;-66
2022/01/04 06:53:55;;;;;;;1999.90;999.90;;;;;;;9.04;78.14;99267.69;15765416;28;20509;-64
2022/01/04 07:01:28;;;;;;;1999.90;999.90;;;;;;;9.14;78.33;99263.56;15742264;28;20570;-65
2022/01/04 07:09:04;;;;;;;1999.90;999.90;;;;;;;9.29;77.97;99262.78;15718572;22;20037;-58
2022/01/04 07:16:36;;;;;;;1999.90;999.90;;;;;;;9.33;77.94;99260.88;15654047;28;20052;-53
2022/01/04 07:24:10;;;;;;;1999.90;999.90;;;;;;;9.39;78.22;99267.81;15603344;28;20107;-58
2022/01/04 07:31:43;;;;;;;1999.90;999.90;;;;;;;9.37;77.93;99266.53;15651202;28;20049;-55
2022/01/04 07:39:17;;;;;;;1999.90;999.90;;;;;;;9.38;77.73;99255.06;15679552;28;20052;-51
2022/01/04 07:46:49;;;;;;;1999.90;999.90;;;;;;;9.32;77.49;99247.34;15625218;28;20073;-54
2022/01/04 07:54:23;;;;;;;1999.90;999.90;;;;;;;9.28;77.60;99254.78;15615940;28;20120;-53
2022/01/04 08:01:57;;;;;;;1999.90;999.90;;;;;;;9.40;77.44;99224.88;15598506;28;20064;-56
2022/01/04 08:09:32;;;;;;;1999.90;999.90;;;;;;;9.47;76.67;99224.22;15616606;28;20398;-55
2022/01/04 08:17:05;;;;;;;1999.90;999.90;;;;;;;9.48;76.74;99211.91;15600774;28;20426;-53
2022/01/04 08:24:39;;;;;;;1999.90;999.90;;;;;;;9.39;77.21;99205.75;15658725;28;20411;-58
2022/01/04 08:32:11;;;;;;;1999.90;999.90;;;;;;;9.48;76.62;99193.25;15678469;28;20057;-54
2022/01/04 08:39:46;;;;;;;1999.90;999.90;;;;;;;9.49;76.82;99177.34;15676933;28;20207;-50
2022/01/04 08:47:19;;;;;;;1999.90;999.90;;;;;;;9.38;77.07;99193.81;15616907;28;20061;-61
2022/01/04 08:54:53;;;;;;;1999.90;999.90;;;;;;;9.67;76.63;99175.75;15631949;28;20041;-53
2022/01/04 09:02:26;;;;;;;1999.90;999.90;;;;;;;9.69;76.55;99161.47;15605229;28;20409;-54
2022/01/04 09:10:01;;;;;;;1999.90;999.90;;;;;;;9.67;76.28;99153.47;15657446;28;20049;-59
2022/01/04 09:25:26;;;;;;;1999.90;999.90;;;;;;;9.94;75.48;99162.00;15616526;28;20041;-52
2022/01/04 09:33:00;;;;;;;1999.90;999.90;;;;;;;10.07;74.87;99141.19;15594452;28;20044;-54
2022/01/04 09:40:36;;;;;;;1999.90;999.90;;;;;;;10.01;74.73;99142.66;15593519;28;20049;-55
2022/01/04 09:48:09;;;;;;;1999.90;999.90;;;;;;;9.97;74.74;99136.19;15577432;28;20038;-60
2022/01/04 09:55:43;;;;;;;1999.90;999.90;;;;;;;10.11;74.65;99125.34;15637564;28;20080;-62
2022/01/04 10:03:17;;;;;;;1999.90;999.90;;;;;;;9.91;75.62;99118.19;15672632;28;20048;-60
2022/01/04 10:11:01;;;;;;;1999.90;999.90;;;;;;;10.04;75.65;99083.41;15653896;28;20076;-54
2022/01/04 10:18:34;;;;;;;1999.90;999.90;;;;;;;10.02;75.85;99075.41;15671880;28;20037;-58
2022/01/04 10:26:08;;;;;;;1999.90;999.90;;;;;;;9.96;76.08;99056.56;15671305;28;20124;-56
2022/01/04 10:33:41;;;;;;;1999.90;999.90;;;;;;;10.13;75.94;99056.91;15648963;28;20111;-52
2022/01/04 10:41:23;;;;;;;1999.90;999.90;;;;;;;10.25;75.47;99039.22;15622583;28;20051;-57
2022/01/04 10:48:56;;;;;;;1999.90;999.90;;;;;;;10.31;75.63;99046.09;15613913;28;20051;-58
2022/01/04 10:56:32;;;;;;;1999.90;999.90;;;;;;;10.37;75.60;99041.84;15676069;28;20052;-58
2022/01/04 11:04:11;;;;;;;1999.90;999.90;;;;;;;10.09;76.60;99046.88;15602038;28;20053;-53
2022/01/04 11:11:45;;;;;;;1999.90;999.90;;;;;;;10.15;76.36;99047.38;15585468;28;20073;-57
2022/01/04 11:19:19;;;;;;;1999.90;999.90;;;;;;;10.23;76.19;99035.22;15649220;28;20099;-54
2022/01/04 11:26:54;;;;;;;1999.90;999.90;;;;;;;10.22;77.03;99022.47;15680943;28;20037;-54
2022/01/04 11:34:37;;;;;;;1999.90;999.90;;;;;;;10.31;76.36;99003.47;15677554;28;20439;-56
2022/01/04 11:42:13;;;;;;;;;;;;;;;10.47;76.58;98981.03;15679121;28;20049;-57
2022/01/04 11:50:09;;;;;;;1999.90;999.90;;;;;;;10.41;76.95;98978.56;15658774;28;19925;-60
2022/01/04 11:57:43;;;;;;;1999.90;999.90;;;;;;;10.15;77.35;98959.00;15675386;28;20060;-53
2022/01/04 12:05:24;;;;;;;1999.90;999.90;;;;;;;10.39;77.34;98913.22;15658101;28;20045;-50
2022/01/04 12:12:59;;;;;;;1999.90;999.90;;;;;;;10.35;76.61;98887.28;15655843;28;20387;-56
2022/01/04 12:20:57;;;;;;;1999.90;999.90;;;;;;;10.39;76.62;98876.97;15674040;28;20476;-57
2022/01/04 12:28:32;;;;;;;1999.90;999.90;;;;;;;10.32;77.11;98880.47;15650628;28;20110;-52
2022/01/04 12:36:05;;;;;;;1999.90;999.90;;;;;;;10.39;77.03;98888.13;15648422;28;20045;-51
2022/01/04 12:43:40;;;;;;;1999.90;999.90;;;;;;;10.45;77.17;98895.00;15671934;28;20058;-57
2022/01/04 12:51:24;;;;;;;1999.90;999.90;;;;;;;10.48;77.35;98882.28;15624563;28;20610;-52
2022/01/04 12:58:58;;;;;;;1999.90;999.90;;;;;;;10.29;78.17;98872.03;15595965;28;20133;-50
2022/01/04 13:06:32;;;;;;;1999.90;999.90;;;;;;;10.37;78.24;98870.97;15628102;28;20347;-52
2022/01/04 13:14:06;;;;;;;1999.90;999.90;;;;;;;10.24;78.71;98859.25;15620323;22;20057;-66
2022/01/04 13:21:39;;;;;;;1999.90;999.90;;;;;;;10.29;78.72;98875.63;15595137;28;20422;-65
2022/01/04 13:29:13;;;;;;;1999.90;999.90;;;;;;;10.28;78.81;98898.31;15559488;28;20133;-63
2022/01/04 13:36:49;;;;;;;1999.90;999.90;;;;;;;10.51;78.38;98887.09;15618435;28;20581;-65
2022/01/04 13:44:23;;;;;;;1999.90;999.90;;;;;;;10.31;78.87;98878.84;15618338;28;20120;-65
2022/01/04 13:51:59;;;;;;;1999.90;999.90;;;;;;;10.04;79.65;98875.22;15560423;28;20215;-66
2022/01/04 13:59:33;;;;;;;1999.90;999.90;;;;;;;10.14;79.36;98859.84;15558408;28;20038;-65
2022/01/04 14:07:13;;;;;;;1999.90;999.90;;;;;;;10.20;79.37;98854.75;15589887;28;20038;-64
2022/01/04 14:14:51;;;;;;;1999.90;999.90;;;;;;;10.29;78.65;98870.03;15531202;28;20045;-65
2022/01/04 14:22:25;;;;;;;1999.90;999.90;;;;;;;10.24;78.91;98875.16;15552894;28;20073;-65
2022/01/04 14:30:02;;;;;;;1999.90;999.90;;;;;;;10.19;78.65;98865.09;15541085;28;20054;-65
2022/01/04 14:37:37;;;;;;;1999.90;999.90;;;;;;;10.08;78.38;98864.94;15538253;28;20061;-66
2022/01/04 14:45:13;;;;;;;1999.90;999.90;;;;;;;10.11;78.68;98868.97;15555855;28;20069;-65
2022/01/04 14:52:46;;;;;;;1999.90;999.90;;;;;;;10.00;78.71;98865.19;15543872;28;20583;-65
2022/01/04 15:00:20;;;;;;;;;;;;;;;10.01;78.66;98861.25;15522690;28;20045;-65
2022/01/04 15:07:53;;;;;;;1999.90;999.90;;;;;;;9.94;79.36;98841.63;15539048;28;19995;-65
2022/01/04 15:15:27;;;;;;;1999.90;999.90;;;;;;;9.97;79.29;98866.75;15561257;28;20042;-66
2022/01/04 15:23:00;;;;;;;1999.90;999.90;;;;;;;9.86;79.41;98873.31;15532083;28;20542;-64
2022/01/04 15:30:34;;;;;;;1999.90;999.90;;;;;;;9.74;79.73;98877.91;15523696;28;20570;-64
2022/01/04 15:38:07;;;;;;;1999.90;999.90;;;;;;;9.82;79.52;98878.84;15554049;28;20399;-67
2022/01/04 15:45:40;;;;;;;1999.90;999.90;;;;;;;9.79;79.62;98882.34;15564154;28;20486;-64
2022/01/04 15:53:13;;;;;;;1999.90;999.90;;;;;;;9.62;79.32;98886.47;15554800;28;20050;-61
2022/01/04 16:00:48;;;;;;;1999.90;999.90;;;;;;;9.69;79.41;98882.97;15552442;28;20073;-62
2022/01/04 16:08:22;;;;;;;1999.90;999.90;;;;;;;9.48;79.75;98897.31;15505834;28;20558;-61
2022/01/04 16:16:01;;;;;;;1999.90;999.90;;;;;;;9.43;79.31;98912.34;15517057;28;20045;-66
2022/01/04 16:23:34;;;;;;;1999.90;999.90;;;;;;;9.34;79.52;98913.75;15577605;28;20038;-68
2022/01/04 16:31:08;;;;;;;1999.90;999.90;;;;;;;9.50;79.33;98900.56;15563291;28;20471;-65
2022/01/04 16:38:42;;;;;;;1999.90;999.90;;;;;;;9.36;79.38;98884.38;15552961;28;20080;-67
2022/01/04 16:46:21;;;;;;;1999.90;999.90;;;;;;;9.43;79.04;98905.97;15539473;28;20050;-66
2022/01/04 16:53:54;;;;;;;1999.90;999.90;;;;;;;9.34;79.45;98902.63;15549771;28;20406;-65
2022/01/04 17:01:29;;;;;;;1999.90;999.90;;;;;;;9.27;79.58;98911.63;15595843;28;20049;-62
2022/01/04 17:09:02;;;;;;;1999.90;999.90;;;;;;;9.14;79.58;98899.06;15579516;28;20636;-66
2022/01/04 17:16:36;;;;;;;;;;;;;;;9.21;78.44;98911.13;15564451;28;20081;-65
2022/01/04 17:24:09;;;;;;;1999.90;999.90;;;;;;;8.99;78.74;98903.53;15592531;28;19921;-64
2022/01/04 17:31:43;;;;;;;1999.90;999.90;;;;;;;8.96;79.49;98915.38;15555772;28;20046;-64
2022/01/04 17:39:15;;;;;;;1999.90;999.90;;;;;;;9.00;79.03;98915.47;15596288;28;20049;-64
2022/01/04 17:46:50;;;;;;;1999.90;999.90;;;;;;;9.18;78.75;98905.50;15553915;28;20057;-62
2022/01/04 17:54:23;;;;;;;1999.90;999.90;;;;;;;9.14;78.62;98908.22;15560953;28;20045;-63
2022/01/04 18:01:57;;;;;;;1999.90;999.90;;;;;;;9.26;78.41;98935.88;15548705;28;20137;-63
2022/01/04 18:09:30;;;;;;;1999.90;999.90;;;;;;;9.23;78.31;98955.28;15611895;28;20498;-64
2022/01/04 18:17:04;;;;;;;1999.90;999.90;;;;;;;9.17;78.56;98962.31;15591829;28;20498;-64
2022/01/04 18:24:37;;;;;;;1999.90;999.90;;;;;;;8.76;78.89;98975.78;15537471;28;20046;-64
2022/01/04 18:32:14;;;;;;;1999.90;999.90;;;;;;;8.91;77.74;98972.13;15553024;28;20137;-66
2022/01/04 18:39:49;;;;;;;1999.90;999.90;;;;;;;8.62;78.19;98990.13;15553321;28;20515;-62
2022/01/04 18:47:29;;;;;;;1999.90;999.90;;;;;;;8.88;77.40;99008.22;15553362;28;20030;-66
2022/01/04 18:55:07;;;;;;;1999.90;999.90;;;;;;;8.42;78.27;99019.03;15556029;28;20510;-64
2022/01/04 19:02:46;;;;;;;1999.90;999.90;;;;;;;8.35;78.50;99014.13;15555681;28;20050;-64
2022/01/04 19:10:24;;;;;;;1999.90;999.90;;;;;;;8.44;77.76;99029.78;15602240;28;20099;-65
2022/01/04 19:18:05;;;;;;;1999.90;999.90;;;;;;;8.31;78.02;99017.94;15624161;28;20525;-65
2022/01/04 19:25:45;;;;;;;1999.90;999.90;;;;;;;8.15;78.45;99017.13;15623789;28;20099;-63
2022/01/04 19:41:28;;;;;;;1999.90;999.90;;;;;;;7.92;79.68;99037.19;15504827;28;20054;-65
2022/01/04 19:49:13;;;;;;;1999.90;999.90;;;;;;;8.29;78.77;99037.75;15558652;28;20038;-65
2022/01/04 19:57:17;;;;;;;1999.90;999.90;;;;;;;8.30;78.67;99042.13;15588906;28;20070;-67
2022/01/04 20:05:23;;;;;;;1999.90;999.90;;;;;;;8.45;78.61;99059.22;15553905;28;20116;-64
2022/01/04 20:13:09;;;;;;;1999.90;999.90;;;;;;;8.12;79.44;99065.88;15533753;28;20379;-62
2022/01/04 20:20:57;;;;;;;1999.90;999.90;;;;;;;8.27;78.99;99087.31;15528298;28;20100;-63
2022/01/04 20:28:44;;;;;;;1999.90;999.90;;;;;;;8.26;79.32;99087.69;15554005;28;20038;-66
2022/01/04 20:36:33;;;;;;;1999.90;999.90;;;;;;;8.18;79.18;99096.97;15582689;28;20038;-68
2022/01/04 20:44:17;;;;;;;1999.90;999.90;;;;;;;8.20;78.58;99112.13;15535075;28;20100;-64
2022/01/04 20:52:06;;;;;;;1999.90;999.90;;;;;;;8.38;77.98;99126.53;15547898;28;20129;-67
2022/01/04 20:59:52;;;;;;;1999.90;999.90;;;;;;;8.27;78.54;99120.66;15549667;28;20451;-63
2022/01/04 21:07:37;;;;;;;1999.90;999.90;;;;;;;8.45;77.49;99120.38;15562550;28;20069;-64
2022/01/04 21:15:23;;;;;;;1999.90;999.90;;;;;;;8.17;78.40;99118.41;15546942;28;20522;-65
2022/01/04 21:23:13;;;;;;;1999.90;999.90;;;;;;;8.06;79.04;99132.00;15572312;28;20107;-62
2022/01/04 21:30:59;;;;;;;1999.90;999.90;;;;;;;7.92;77.74;99128.84;15572762;28;20133;-66
2022/01/04 21:38:46;;;;;;;1999.90;999.90;;;;;;;8.13;76.79;99153.63;15565578;28;20103;-64
2022/01/04 21:46:34;;;;;;;1999.90;999.90;;;;;;;8.20;75.61;99155.78;15541655;28;20517;-63
2022/01/04 21:54:17;;;;;;;1999.90;999.90;;;;;;;8.07;75.54;99157.81;15529512;28;20069;-63
2022/01/04 22:02:00;;;;;;;1999.90;999.90;;;;;;;8.19;74.21;99160.53;15516856;28;20046;-65
2022/01/04 22:09:52;;;;;;;1999.90;999.90;;;;;;;7.90;75.24;99189.44;15496652;28;20038;-65
2022/01/04 22:17:39;;;;;;;1999.90;999.90;;;;;;;7.97;74.55;99192.44;15513328;28;20031;-65
2022/01/04 22:25:30;;;;;;;1999.90;999.90;;;;;;;8.07;73.85;99189.16;15530977;28;20054;-65
2022/01/04 22:33:17;;;;;;;1999.90;999.90;;;;;;;8.01;73.27;99201.69;15531920;28;20541;-65
2022/01/04 22:41:08;;;;;;;1999.90;999.90;;;;;;;8.08;72.42;99192.75;15546936;28;20041;-65
2022/01/04 22:48:53;;;;;;;1999.90;999.90;;;;;;;7.66;72.35;99195.09;15539570;28;20602;-65
2022/01/04 22:56:42;;;;;;;1999.90;999.90;;;;;;;7.88;72.02;99205.66;15518877;28;20041;-66
2022/01/04 23:04:29;;;;;;;1999.90;999.90;;;;;;;7.80;72.01;99206.59;15558317;28;20037;-64
2022/01/04 23:12:20;;;;;;;1999.90;999.90;;;;;;;7.89;72.45;99223.13;15560792;28;20046;-65
2022/01/04 23:20:07;;;;;;;1999.90;999.90;;;;;;;7.68;72.60;99215.78;15509432;28;20065;-65
2022/01/04 23:27:58;;;;;;;1999.90;999.90;;;;;;;7.51;71.56;99210.50;15511710;28;20062;-65
2022/01/04 23:35:35;;;;;;;1999.90;999.90;;;;;;;7.51;71.04;99210.50;15540008;28;20038;-65
2022/01/04 23:43:11;;;;;;;1999.90;999.90;;;;;;;7.49;71.60;99190.59;15516165;28;20050;-65
2022/01/04 23:50:43;;;;;;;1999.90;999.90;;;;;;;7.19;71.92;99195.59;15543702;28;20042;-65
2022/01/04 23:58:17;;;;;;;1999.90;999.90;;;;;;;7.15;72.07;99197.44;15533637;28;20036;-65
